Los Angeles, California
Traffic Map
Current Weather Conditions
Los Angeles, California
Scattered Clouds
Scattered Clouds
59°
Feels Like: 59°
Wind Chill: 59° Ceiling: Unl
Heat Index: 59° Visibility: 7mi
Dew Point: 49° Wind: 0mph
Humidity: 69% Direction: ° ()
Pressure: 30.1in Gusts: 0mph
Raw Report DataKCQT 071847Z AUTO 00000KT 7SM SCT033 15/09 A3010 RMK AO2 SLP193 T01500094
Traffic Incident Summary
Active as of:
Severity:
Category:
InformationThere was an issue retrieving the traffic information for this location. Please try a different location or try again shortly.
Advertisements
Track Severe Weather on mobile